sensor_id;sensor_type;location;lat;lon;timestamp;pressure;altitude;pressure_sealevel;temperature;humidity
54172;BME280;40076;52.354;4.970;2023-07-29T00:01:54;100727.16;;;20.07;100.00
54172;BME280;40076;52.354;4.970;2023-07-29T00:07:12;100710.69;;;20.03;100.00
54172;BME280;40076;52.354;4.970;2023-07-29T00:09:37;100698.53;;;20.01;100.00
54172;BME280;40076;52.354;4.970;2023-07-29T00:12:03;100700.50;;;20.00;100.00
54172;BME280;40076;52.354;4.970;2023-07-29T00:14:28;100704.41;;;19.96;100.00
54172;BME280;40076;52.354;4.970;2023-07-29T00:16:54;100707.91;;;19.93;100.00
54172;BME280;40076;52.354;4.970;2023-07-29T00:19:19;100707.13;;;19.89;100.00
54172;BME280;40076;52.354;4.970;2023-07-29T00:21:48;100703.97;;;19.87;100.00
54172;BME280;40076;52.354;4.970;2023-07-29T00:24:16;100705.50;;;19.84;100.00
54172;BME280;40076;52.354;4.970;2023-07-29T00:26:42;100696.50;;;19.84;100.00
54172;BME280;40076;52.354;4.970;2023-07-29T00:29:10;100701.97;;;19.84;100.00
54172;BME280;40076;52.354;4.970;2023-07-29T00:31:35;100698.06;;;19.81;100.00
54172;BME280;40076;52.354;4.970;2023-07-29T00:34:01;100692.97;;;19.80;100.00
54172;BME280;40076;52.354;4.970;2023-07-29T00:36:26;100692.19;;;19.83;100.00
54172;BME280;40076;52.354;4.970;2023-07-29T00:38:51;100693.75;;;19.84;100.00
54172;BME280;40076;52.354;4.970;2023-07-29T00:41:22;100688.69;;;19.86;100.00
54172;BME280;40076;52.354;4.970;2023-07-29T00:43:50;100687.91;;;19.89;100.00
54172;BME280;40076;52.354;4.970;2023-07-29T00:46:15;100683.59;;;19.88;100.00
54172;BME280;40076;52.354;4.970;2023-07-29T00:48:41;100681.66;;;19.88;100.00
54172;BME280;40076;52.354;4.970;2023-07-29T00:51:07;100686.75;;;19.90;100.00
54172;BME280;40076;52.354;4.970;2023-07-29T00:53:32;100681.25;;;19.90;100.00
54172;BME280;40076;52.354;4.970;2023-07-29T00:55:58;100676.16;;;19.92;100.00
54172;BME280;40076;52.354;4.970;2023-07-29T00:58:24;100675.78;;;19.93;100.00
54172;BME280;40076;52.354;4.970;2023-07-29T01:00:49;100673.81;;;19.94;100.00
54172;BME280;40076;52.354;4.970;2023-07-29T01:03:15;100669.13;;;19.94;100.00
54172;BME280;40076;52.354;4.970;2023-07-29T01:05:55;100667.16;;;19.95;100.00
54172;BME280;40076;52.354;4.970;2023-07-29T01:08:31;100662.47;;;19.95;100.00
54172;BME280;40076;52.354;4.970;2023-07-29T01:16:21;100656.22;;;19.98;100.00
54172;BME280;40076;52.354;4.970;2023-07-29T01:18:47;100657.00;;;19.95;100.00
54172;BME280;40076;52.354;4.970;2023-07-29T01:21:15;100656.59;;;19.97;100.00
54172;BME280;40076;52.354;4.970;2023-07-29T01:23:44;100656.19;;;19.95;100.00
54172;BME280;40076;52.354;4.970;2023-07-29T01:26:21;100663.25;;;19.96;100.00
54172;BME280;40076;52.354;4.970;2023-07-29T01:28:49;100664.84;;;19.97;100.00
54172;BME280;40076;52.354;4.970;2023-07-29T01:31:21;100662.84;;;19.94;100.00
54172;BME280;40076;52.354;4.970;2023-07-29T01:33:53;100656.59;;;19.93;100.00
54172;BME280;40076;52.354;4.970;2023-07-29T01:36:24;100655.41;;;19.91;100.00
54172;BME280;40076;52.354;4.970;2023-07-29T01:38:52;100656.97;;;19.92;100.00
54172;BME280;40076;52.354;4.970;2023-07-29T01:41:19;100655.00;;;19.92;100.00
54172;BME280;40076;52.354;4.970;2023-07-29T01:43:46;100654.22;;;19.92;100.00
54172;BME280;40076;52.354;4.970;2023-07-29T01:46:12;100652.66;;;19.87;100.00
54172;BME280;40076;52.354;4.970;2023-07-29T01:48:37;100647.16;;;19.87;100.00
54172;BME280;40076;52.354;4.970;2023-07-29T01:51:03;100658.88;;;19.84;100.00
54172;BME280;40076;52.354;4.970;2023-07-29T01:53:29;100656.94;;;19.85;100.00
54172;BME280;40076;52.354;4.970;2023-07-29T01:58:58;100645.97;;;19.81;100.00
54172;BME280;40076;52.354;4.970;2023-07-29T02:01:23;100644.78;;;19.75;100.00
54172;BME280;40076;52.354;4.970;2023-07-29T02:03:48;100640.47;;;19.78;100.00
54172;BME280;40076;52.354;4.970;2023-07-29T02:06:19;100633.41;;;19.77;100.00
54172;BME280;40076;52.354;4.970;2023-07-29T02:08:52;100634.19;;;19.77;100.00
54172;BME280;40076;52.354;4.970;2023-07-29T02:11:18;100634.59;;;19.76;100.00
54172;BME280;40076;52.354;4.970;2023-07-29T02:13:45;100644.38;;;19.77;100.00
54172;BME280;40076;52.354;4.970;2023-07-29T02:16:16;100633.81;;;19.75;100.00
54172;BME280;40076;52.354;4.970;2023-07-29T02:18:43;100631.44;;;19.74;100.00
54172;BME280;40076;52.354;4.970;2023-07-29T02:21:09;100625.94;;;19.70;100.00
54172;BME280;40076;52.354;4.970;2023-07-29T02:23:34;100624.38;;;19.69;100.00
54172;BME280;40076;52.354;4.970;2023-07-29T02:26:02;100625.16;;;19.66;100.00
54172;BME280;40076;52.354;4.970;2023-07-29T02:28:28;100622.00;;;19.64;100.00
54172;BME280;40076;52.354;4.970;2023-07-29T02:33:40;100627.47;;;19.60;100.00
54172;BME280;40076;52.354;4.970;2023-07-29T02:36:08;100635.28;;;19.58;100.00
54172;BME280;40076;52.354;4.970;2023-07-29T02:38:33;100638.41;;;19.57;100.00
54172;BME280;40076;52.354;4.970;2023-07-29T02:40:59;100641.16;;;19.57;100.00
54172;BME280;40076;52.354;4.970;2023-07-29T02:43:24;100628.63;;;19.56;100.00
54172;BME280;40076;52.354;4.970;2023-07-29T02:45:49;100626.25;;;19.54;100.00
54172;BME280;40076;52.354;4.970;2023-07-29T02:48:18;100631.72;;;19.51;100.00
54172;BME280;40076;52.354;4.970;2023-07-29T02:50:43;100632.91;;;19.50;100.00
54172;BME280;40076;52.354;4.970;2023-07-29T02:53:12;100620.75;;;19.47;100.00
54172;BME280;40076;52.354;4.970;2023-07-29T02:55:40;100626.56;;;19.46;100.00
54172;BME280;40076;52.354;4.970;2023-07-29T02:58:11;100621.09;;;19.46;100.00
54172;BME280;40076;52.354;4.970;2023-07-29T03:00:36;100621.47;;;19.41;100.00
54172;BME280;40076;52.354;4.970;2023-07-29T03:03:01;100614.44;;;19.43;100.00
54172;BME280;40076;52.354;4.970;2023-07-29T03:05:27;100610.13;;;19.42;100.00
54172;BME280;40076;52.354;4.970;2023-07-29T03:07:52;100606.59;;;19.42;100.00
54172;BME280;40076;52.354;4.970;2023-07-29T03:10:18;100601.88;;;19.39;100.00
54172;BME280;40076;52.354;4.970;2023-07-29T03:12:43;100596.41;;;19.39;100.00
54172;BME280;40076;52.354;4.970;2023-07-29T03:15:09;100596.38;;;19.35;100.00
54172;BME280;40076;52.354;4.970;2023-07-29T03:17:34;100595.59;;;19.35;100.00
54172;BME280;40076;52.354;4.970;2023-07-29T03:19:59;100595.19;;;19.33;100.00
54172;BME280;40076;52.354;4.970;2023-07-29T03:25:28;100586.19;;;19.28;100.00
54172;BME280;40076;52.354;4.970;2023-07-29T03:30:56;100590.06;;;19.24;100.00
54172;BME280;40076;52.354;4.970;2023-07-29T03:33:22;100597.09;;;19.21;100.00
54172;BME280;40076;52.354;4.970;2023-07-29T03:35:48;100596.69;;;19.19;100.00
54172;BME280;40076;52.354;4.970;2023-07-29T03:38:14;100600.59;;;19.18;100.00
54172;BME280;40076;52.354;4.970;2023-07-29T03:40:39;100595.50;;;19.17;100.00
54172;BME280;40076;52.354;4.970;2023-07-29T03:43:05;100593.53;;;19.17;100.00
54172;BME280;40076;52.354;4.970;2023-07-29T03:45:33;100586.13;;;19.18;100.00
54172;BME280;40076;52.354;4.970;2023-07-29T03:47:59;100591.59;;;19.14;100.00
54172;BME280;40076;52.354;4.970;2023-07-29T03:50:24;100607.59;;;19.12;100.00
54172;BME280;40076;52.354;4.970;2023-07-29T03:52:50;100608.34;;;19.09;100.00
54172;BME280;40076;52.354;4.970;2023-07-29T03:55:15;100614.63;;;19.06;100.00
54172;BME280;40076;52.354;4.970;2023-07-29T03:57:43;100616.94;;;19.04;100.00
54172;BME280;40076;52.354;4.970;2023-07-29T04:00:09;100613.78;;;19.02;100.00
54172;BME280;40076;52.354;4.970;2023-07-29T04:02:38;100609.44;;;18.94;100.00
54172;BME280;40076;52.354;4.970;2023-07-29T04:05:04;100616.06;;;18.93;100.00
54172;BME280;40076;52.354;4.970;2023-07-29T04:07:30;100611.38;;;18.90;100.00
54172;BME280;40076;52.354;4.970;2023-07-29T04:09:55;100610.16;;;18.87;100.00
54172;BME280;40076;52.354;4.970;2023-07-29T04:12:21;100592.94;;;18.87;100.00
54172;BME280;40076;52.354;4.970;2023-07-29T04:14:47;100601.94;;;18.87;100.00
54172;BME280;40076;52.354;4.970;2023-07-29T04:17:12;100603.09;;;18.83;100.00
54172;BME280;40076;52.354;4.970;2023-07-29T04:19:38;100606.22;;;18.85;100.00
54172;BME280;40076;52.354;4.970;2023-07-29T04:22:05;100621.88;;;18.84;100.00
54172;BME280;40076;52.354;4.970;2023-07-29T04:24:31;100620.31;;;18.83;100.00
54172;BME280;40076;52.354;4.970;2023-07-29T04:26:56;100616.38;;;18.84;100.00
54172;BME280;40076;52.354;4.970;2023-07-29T04:29:22;100614.84;;;18.83;100.00
54172;BME280;40076;52.354;4.970;2023-07-29T04:31:48;100611.31;;;18.83;100.00
54172;BME280;40076;52.354;4.970;2023-07-29T04:34:16;100615.97;;;18.79;100.00
54172;BME280;40076;52.354;4.970;2023-07-29T04:36:45;100609.31;;;18.80;100.00
54172;BME280;40076;52.354;4.970;2023-07-29T04:39:10;100615.97;;;18.79;100.00
54172;BME280;40076;52.354;4.970;2023-07-29T04:41:36;100618.69;;;18.79;100.00
54172;BME280;40076;52.354;4.970;2023-07-29T04:44:01;100613.59;;;18.77;100.00
54172;BME280;40076;52.354;4.970;2023-07-29T04:46:26;100606.19;;;18.78;100.00
54172;BME280;40076;52.354;4.970;2023-07-29T04:48:52;100614.38;;;18.78;100.00
54172;BME280;40076;52.354;4.970;2023-07-29T04:51:17;100614.00;;;18.79;100.00
54172;BME280;40076;52.354;4.970;2023-07-29T04:53:45;100607.38;;;18.80;100.00
54172;BME280;40076;52.354;4.970;2023-07-29T04:56:10;100615.97;;;18.79;100.00
54172;BME280;40076;52.354;4.970;2023-07-29T04:58:36;100619.50;;;18.79;100.00
54172;BME280;40076;52.354;4.970;2023-07-29T05:01:02;100615.97;;;18.79;100.00
54172;BME280;40076;52.354;4.970;2023-07-29T05:03:28;100615.97;;;18.79;100.00
54172;BME280;40076;52.354;4.970;2023-07-29T05:05:53;100623.38;;;18.78;100.00
54172;BME280;40076;52.354;4.970;2023-07-29T05:08:22;100629.66;;;18.79;100.00
54172;BME280;40076;52.354;4.970;2023-07-29T05:10:51;100619.06;;;18.77;100.00
54172;BME280;40076;52.354;4.970;2023-07-29T05:13:18;100620.66;;;18.78;100.00
54172;BME280;40076;52.354;4.970;2023-07-29T05:15:44;100616.34;;;18.77;100.00
54172;BME280;40076;52.354;4.970;2023-07-29T05:18:09;100625.75;;;18.76;100.00
54172;BME280;40076;52.354;4.970;2023-07-29T05:20:35;100623.75;;;18.77;100.00
54172;BME280;40076;52.354;4.970;2023-07-29T05:23:00;100628.06;;;18.78;100.00
54172;BME280;40076;52.354;4.970;2023-07-29T05:25:28;100626.53;;;18.80;100.00
54172;BME280;40076;52.354;4.970;2023-07-29T05:27:54;100618.31;;;18.80;100.00
54172;BME280;40076;52.354;4.970;2023-07-29T05:30:19;100628.91;;;18.82;100.00
54172;BME280;40076;52.354;4.970;2023-07-29T05:32:44;100616.38;;;18.81;100.00
54172;BME280;40076;52.354;4.970;2023-07-29T05:35:10;100626.16;;;18.82;100.00
54172;BME280;40076;52.354;4.970;2023-07-29T05:37:39;100628.53;;;18.83;100.00
54172;BME280;40076;52.354;4.970;2023-07-29T05:40:07;100622.28;;;18.83;100.00
54172;BME280;40076;52.354;4.970;2023-07-29T05:42:33;100614.44;;;18.85;100.00
54172;BME280;40076;52.354;4.970;2023-07-29T05:44:59;100616.00;;;18.86;100.00
54172;BME280;40076;52.354;4.970;2023-07-29T05:47:25;100620.31;;;18.87;100.00
54172;BME280;40076;52.354;4.970;2023-07-29T05:49:50;100617.19;;;18.85;100.00
54172;BME280;40076;52.354;4.970;2023-07-29T05:55:20;100616.47;;;18.92;100.00
54172;BME280;40076;52.354;4.970;2023-07-29T05:58:02;100619.22;;;18.95;100.00
54172;BME280;40076;52.354;4.970;2023-07-29T06:00:27;100613.00;;;18.98;100.00
54172;BME280;40076;52.354;4.970;2023-07-29T06:02:52;100619.28;;;19.02;100.00
54172;BME280;40076;52.354;4.970;2023-07-29T06:05:18;100620.47;;;19.05;100.00
54172;BME280;40076;52.354;4.970;2023-07-29T06:07:45;100622.06;;;19.09;100.00
54172;BME280;40076;52.354;4.970;2023-07-29T06:10:13;100618.94;;;19.11;100.00
54172;BME280;40076;52.354;4.970;2023-07-29T06:12:39;100617.41;;;19.13;100.00
54172;BME280;40076;52.354;4.970;2023-07-29T06:15:07;100620.13;;;19.13;100.00
54172;BME280;40076;52.354;4.970;2023-07-29T06:17:32;100623.66;;;19.17;100.00
54172;BME280;40076;52.354;4.970;2023-07-29T06:19:58;100630.34;;;19.20;100.00
54172;BME280;40076;52.354;4.970;2023-07-29T06:22:23;100627.97;;;19.18;100.00
54172;BME280;40076;52.354;4.970;2023-07-29T06:24:49;100630.75;;;19.22;100.00
54172;BME280;40076;52.354;4.970;2023-07-29T06:27:17;100631.94;;;19.24;100.00
54172;BME280;40076;52.354;4.970;2023-07-29T06:29:42;100629.59;;;19.26;100.00
54172;BME280;40076;52.354;4.970;2023-07-29T06:32:08;100632.34;;;19.30;100.00
54172;BME280;40076;52.354;4.970;2023-07-29T06:37:33;100635.53;;;19.36;100.00
54172;BME280;40076;52.354;4.970;2023-07-29T06:39:59;100636.69;;;19.35;100.00
54172;BME280;40076;52.354;4.970;2023-07-29T06:45:27;100636.31;;;19.36;100.00
54172;BME280;40076;52.354;4.970;2023-07-29T06:47:52;100640.63;;;19.37;100.00
54172;BME280;40076;52.354;4.970;2023-07-29T06:50:33;100650.03;;;19.40;100.00
54172;BME280;40076;52.354;4.970;2023-07-29T06:53:01;100639.84;;;19.40;100.00
54172;BME280;40076;52.354;4.970;2023-07-29T06:55:29;100652.38;;;19.41;100.00
54172;BME280;40076;52.354;4.970;2023-07-29T06:57:56;100651.22;;;19.42;100.00
54172;BME280;40076;52.354;4.970;2023-07-29T07:00:22;100649.28;;;19.43;100.00
54172;BME280;40076;52.354;4.970;2023-07-29T07:02:47;100650.84;;;19.44;100.00
54172;BME280;40076;52.354;4.970;2023-07-29T07:05:13;100646.53;;;19.46;100.00
54172;BME280;40076;52.354;4.970;2023-07-29T07:07:38;100642.66;;;19.47;100.00
54172;BME280;40076;52.354;4.970;2023-07-29T07:10:04;100653.25;;;19.49;100.00
54172;BME280;40076;52.354;4.970;2023-07-29T07:18:26;100646.66;;;19.60;100.00
54172;BME280;40076;52.354;4.970;2023-07-29T07:20:52;100636.91;;;19.67;100.00
54172;BME280;40076;52.354;4.970;2023-07-29T07:23:18;100638.47;;;19.71;100.00
54172;BME280;40076;52.354;4.970;2023-07-29T07:25:48;100634.97;;;19.74;100.00
54172;BME280;40076;52.354;4.970;2023-07-29T07:28:14;100642.81;;;19.76;100.00
54172;BME280;40076;52.354;4.970;2023-07-29T07:30:39;100642.81;;;19.79;100.00
54172;BME280;40076;52.354;4.970;2023-07-29T07:33:06;100641.28;;;19.82;100.00
54172;BME280;40076;52.354;4.970;2023-07-29T07:35:31;100645.59;;;19.86;100.00
54172;BME280;40076;52.354;4.970;2023-07-29T07:37:59;100636.97;;;19.91;100.00
54172;BME280;40076;52.354;4.970;2023-07-29T07:40:27;100639.00;;;19.98;100.00
54172;BME280;40076;52.354;4.970;2023-07-29T07:51:35;100639.03;;;20.16;100.00
54172;BME280;40076;52.354;4.970;2023-07-29T07:54:00;100642.56;;;20.16;100.00
54172;BME280;40076;52.354;4.970;2023-07-29T07:56:26;100655.50;;;20.19;100.00
54172;BME280;40076;52.354;4.970;2023-07-29T07:58:51;100653.13;;;20.18;100.00
54172;BME280;40076;52.354;4.970;2023-07-29T08:01:17;100653.94;;;20.18;100.00
54172;BME280;40076;52.354;4.970;2023-07-29T08:03:42;100655.88;;;20.18;100.00
54172;BME280;40076;52.354;4.970;2023-07-29T08:06:08;100652.72;;;20.16;100.00
54172;BME280;40076;52.354;4.970;2023-07-29T08:08:33;100660.19;;;20.15;100.00
54172;BME280;40076;52.354;4.970;2023-07-29T08:10:58;100663.72;;;20.16;100.00
54172;BME280;40076;52.354;4.970;2023-07-29T08:16:14;100652.75;;;20.19;100.00
54172;BME280;40076;52.354;4.970;2023-07-29T08:18:39;100657.84;;;20.24;100.00
54172;BME280;40076;52.354;4.970;2023-07-29T08:21:07;100666.91;;;20.32;100.00
54172;BME280;40076;52.354;4.970;2023-07-29T08:23:33;100669.28;;;20.37;100.00
54172;BME280;40076;52.354;4.970;2023-07-29T08:25:59;100668.13;;;20.41;100.00
54172;BME280;40076;52.354;4.970;2023-07-29T08:28:29;100663.81;;;20.44;100.00
54172;BME280;40076;52.354;4.970;2023-07-29T08:30:55;100668.91;;;20.46;100.00
54172;BME280;40076;52.354;4.970;2023-07-29T08:33:24;100678.34;;;20.48;100.00
54172;BME280;40076;52.354;4.970;2023-07-29T08:38:20;100683.06;;;20.51;100.00
54172;BME280;40076;52.354;4.970;2023-07-29T08:43:31;100683.84;;;20.52;100.00
54172;BME280;40076;52.354;4.970;2023-07-29T08:45:57;100675.19;;;20.53;100.00
54172;BME280;40076;52.354;4.970;2023-07-29T08:48:23;100665.78;;;20.51;100.00
54172;BME280;40076;52.354;4.970;2023-07-29T08:50:51;100668.94;;;20.56;100.00
54172;BME280;40076;52.354;4.970;2023-07-29T08:53:17;100679.91;;;20.60;100.00
54172;BME280;40076;52.354;4.970;2023-07-29T08:55:43;100678.34;;;20.59;100.00
54172;BME280;40076;52.354;4.970;2023-07-29T08:58:08;100689.34;;;20.59;100.00
54172;BME280;40076;52.354;4.970;2023-07-29T09:00:33;100678.72;;;20.61;100.00
54172;BME280;40076;52.354;4.970;2023-07-29T09:02:59;100679.53;;;20.65;100.00
54172;BME280;40076;52.354;4.970;2023-07-29T09:05:31;100683.06;;;20.62;100.00
54172;BME280;40076;52.354;4.970;2023-07-29T09:07:57;100683.44;;;20.64;100.00
54172;BME280;40076;52.354;4.970;2023-07-29T09:10:23;100687.38;;;20.59;100.00
54172;BME280;40076;52.354;4.970;2023-07-29T09:12:50;100687.38;;;20.59;100.00
54172;BME280;40076;52.354;4.970;2023-07-29T09:15:28;100692.88;;;20.59;100.00
54172;BME280;40076;52.354;4.970;2023-07-29T09:17:54;100696.00;;;20.61;100.00
54172;BME280;40076;52.354;4.970;2023-07-29T09:20:26;100708.94;;;20.57;100.00
54172;BME280;40076;52.354;4.970;2023-07-29T09:22:57;100693.22;;;20.54;100.00
54172;BME280;40076;52.354;4.970;2023-07-29T09:25:29;100709.69;;;20.54;100.00
54172;BME280;40076;52.354;4.970;2023-07-29T09:28:01;100706.97;;;20.54;100.00
54172;BME280;40076;52.354;4.970;2023-07-29T09:30:27;100706.16;;;20.54;100.00
54172;BME280;40076;52.354;4.970;2023-07-29T09:33:11;100702.66;;;20.57;100.00
54172;BME280;40076;52.354;4.970;2023-07-29T09:35:37;100691.28;;;20.62;100.00
54172;BME280;40076;52.354;4.970;2023-07-29T09:38:03;100694.81;;;20.69;100.00
54172;BME280;40076;52.354;4.970;2023-07-29T09:40:38;100695.63;;;20.73;100.00
54172;BME280;40076;52.354;4.970;2023-07-29T09:43:04;100700.31;;;20.76;100.00
54172;BME280;40076;52.354;4.970;2023-07-29T09:45:29;100687.78;;;20.79;100.00
54172;BME280;40076;52.354;4.970;2023-07-29T09:47:55;100684.28;;;20.82;100.00
54172;BME280;40076;52.354;4.970;2023-07-29T09:50:25;100684.66;;;20.88;100.00
54172;BME280;40076;52.354;4.970;2023-07-29T09:52:51;100681.09;;;20.91;100.00
54172;BME280;40076;52.354;4.970;2023-07-29T09:55:17;100684.25;;;21.00;100.00
54172;BME280;40076;52.354;4.970;2023-07-29T09:57:43;100676.78;;;21.07;100.00
54172;BME280;40076;52.354;4.970;2023-07-29T10:00:10;100672.09;;;21.11;100.00
54172;BME280;40076;52.354;4.970;2023-07-29T10:02:39;100678.00;;;21.17;100.00
54172;BME280;40076;52.354;4.970;2023-07-29T10:05:05;100677.59;;;21.22;100.00
54172;BME280;40076;52.354;4.970;2023-07-29T10:07:32;100683.50;;;21.28;100.00
54172;BME280;40076;52.354;4.970;2023-07-29T10:09:58;100685.44;;;21.34;100.00
54172;BME280;40076;52.354;4.970;2023-07-29T10:12:24;100698.00;;;21.39;100.00
54172;BME280;40076;52.354;4.970;2023-07-29T10:14:50;100703.09;;;21.40;100.00
54172;BME280;40076;52.354;4.970;2023-07-29T10:17:15;100702.72;;;21.42;100.00
54172;BME280;40076;52.354;4.970;2023-07-29T10:19:41;100698.78;;;21.39;100.00
54172;BME280;40076;52.354;4.970;2023-07-29T10:22:07;100683.84;;;21.40;100.00
54172;BME280;40076;52.354;4.970;2023-07-29T10:24:34;100688.56;;;21.40;100.00
54172;BME280;40076;52.354;4.970;2023-07-29T10:27:00;100684.63;;;21.44;100.00
54172;BME280;40076;52.354;4.970;2023-07-29T10:29:30;100688.16;;;21.48;100.00
54172;BME280;40076;52.354;4.970;2023-07-29T10:32:00;100696.81;;;21.50;100.00
54172;BME280;40076;52.354;4.970;2023-07-29T10:34:32;100702.31;;;21.50;100.00
54172;BME280;40076;52.354;4.970;2023-07-29T10:37:01;100691.31;;;21.50;100.00
54172;BME280;40076;52.354;4.970;2023-07-29T10:39:27;100697.97;;;21.53;100.00
54172;BME280;40076;52.354;4.970;2023-07-29T10:41:56;100713.28;;;21.54;100.00
54172;BME280;40076;52.354;4.970;2023-07-29T10:47:13;100694.81;;;21.54;100.00
54172;BME280;40076;52.354;4.970;2023-07-29T10:49:42;100696.38;;;21.55;100.00
54172;BME280;40076;52.354;4.970;2023-07-29T10:52:07;100712.09;;;21.59;100.00
54172;BME280;40076;52.354;4.970;2023-07-29T10:57:07;100707.38;;;21.66;100.00
54172;BME280;40076;52.354;4.970;2023-07-29T10:59:37;100712.88;;;21.66;100.00
54172;BME280;40076;52.354;4.970;2023-07-29T11:02:03;100706.56;;;21.69;100.00
54172;BME280;40076;52.354;4.970;2023-07-29T11:04:45;100705.78;;;21.72;100.00
54172;BME280;40076;52.354;4.970;2023-07-29T11:15:03;100699.88;;;21.74;100.00
54172;BME280;40076;52.354;4.970;2023-07-29T11:17:29;100697.50;;;21.76;100.00
54172;BME280;40076;52.354;4.970;2023-07-29T11:19:57;100697.91;;;21.78;100.00
54172;BME280;40076;52.354;4.970;2023-07-29T11:22:25;100702.25;;;21.72;100.00
54172;BME280;40076;52.354;4.970;2023-07-29T11:24:50;100706.16;;;21.74;100.00
54172;BME280;40076;52.354;4.970;2023-07-29T11:27:16;100700.25;;;21.76;100.00
54172;BME280;40076;52.354;4.970;2023-07-29T11:29:42;100700.25;;;21.76;100.00
54172;BME280;40076;52.354;4.970;2023-07-29T11:32:09;100690.06;;;21.73;99.73
54172;BME280;40076;52.354;4.970;2023-07-29T11:34:34;100698.28;;;21.80;100.00
54172;BME280;40076;52.354;4.970;2023-07-29T11:37:00;100703.75;;;21.83;100.00
54172;BME280;40076;52.354;4.970;2023-07-29T11:39:25;100701.81;;;21.87;100.00
54172;BME280;40076;52.354;4.970;2023-07-29T11:41:50;100692.34;;;21.92;100.00
54172;BME280;40076;52.354;4.970;2023-07-29T11:44:18;100686.44;;;21.97;100.00
54172;BME280;40076;52.354;4.970;2023-07-29T11:46:44;100698.63;;;22.03;100.00
54172;BME280;40076;52.354;4.970;2023-07-29T11:49:09;100694.69;;;22.04;100.00
54172;BME280;40076;52.354;4.970;2023-07-29T11:51:35;100693.09;;;22.07;100.00
54172;BME280;40076;52.354;4.970;2023-07-29T11:54:09;100692.31;;;22.06;100.00
54172;BME280;40076;52.354;4.970;2023-07-29T11:57:07;100699.81;;;22.02;100.00
54172;BME280;40076;52.354;4.970;2023-07-29T11:59:36;100698.63;;;22.00;100.00
54172;BME280;40076;52.354;4.970;2023-07-29T12:02:05;100697.84;;;21.95;100.00
54172;BME280;40076;52.354;4.970;2023-07-29T12:04:34;100713.16;;;21.89;100.00
54172;BME280;40076;52.354;4.970;2023-07-29T12:06:59;100710.44;;;21.86;100.00
54172;BME280;40076;52.354;4.970;2023-07-29T12:09:25;100714.78;;;21.83;100.00
54172;BME280;40076;52.354;4.970;2023-07-29T12:11:52;100713.22;;;21.75;100.00
54172;BME280;40076;52.354;4.970;2023-07-29T12:14:17;100719.91;;;21.74;100.00
54172;BME280;40076;52.354;4.970;2023-07-29T12:16:48;100716.38;;;21.70;100.00
54172;BME280;40076;52.354;4.970;2023-07-29T12:19:19;100717.59;;;21.66;100.00
54172;BME280;40076;52.354;4.970;2023-07-29T12:21:46;100711.69;;;21.64;100.00
54172;BME280;40076;52.354;4.970;2023-07-29T12:24:12;100721.91;;;21.56;100.00
54172;BME280;40076;52.354;4.970;2023-07-29T12:26:37;100710.13;;;21.55;100.00
54172;BME280;40076;52.354;4.970;2023-07-29T12:29:13;100719.56;;;21.54;100.00
54172;BME280;40076;52.354;4.970;2023-07-29T12:31:39;100703.06;;;21.54;100.00
54172;BME280;40076;52.354;4.970;2023-07-29T12:34:04;100701.50;;;21.53;100.00
54172;BME280;40076;52.354;4.970;2023-07-29T12:36:46;100696.38;;;21.55;100.00
54172;BME280;40076;52.354;4.970;2023-07-29T12:39:25;100699.50;;;21.61;100.00
54172;BME280;40076;52.354;4.970;2023-07-29T12:41:51;100703.41;;;21.67;100.00
54172;BME280;40076;52.354;4.970;2023-07-29T12:44:17;100695.16;;;21.74;100.00
54172;BME280;40076;52.354;4.970;2023-07-29T12:46:42;100705.72;;;21.83;100.00
54172;BME280;40076;52.354;4.970;2023-07-29T12:49:08;100707.31;;;21.87;100.00
54172;BME280;40076;52.354;4.970;2023-07-29T12:51:33;100711.22;;;21.90;100.00
54172;BME280;40076;52.354;4.970;2023-07-29T12:53:59;100702.97;;;21.90;100.00
54172;BME280;40076;52.354;4.970;2023-07-29T12:56:27;100708.47;;;21.93;100.00
54172;BME280;40076;52.354;4.970;2023-07-29T12:58:55;100706.50;;;21.94;100.00
54172;BME280;40076;52.354;4.970;2023-07-29T13:01:40;100708.84;;;21.99;100.00
54172;BME280;40076;52.354;4.970;2023-07-29T13:04:05;100705.28;;;22.06;100.00
54172;BME280;40076;52.354;4.970;2023-07-29T13:06:30;100695.44;;;22.08;100.00
54172;BME280;40076;52.354;4.970;2023-07-29T13:09:01;100702.50;;;22.13;100.00
54172;BME280;40076;52.354;4.970;2023-07-29T13:11:26;100708.78;;;22.17;100.00
54172;BME280;40076;52.354;4.970;2023-07-29T13:13:51;100698.56;;;22.17;100.00
54172;BME280;40076;52.354;4.970;2023-07-29T13:16:17;100708.78;;;22.17;100.00
54172;BME280;40076;52.354;4.970;2023-07-29T13:18:54;100699.78;;;22.09;100.00
54172;BME280;40076;52.354;4.970;2023-07-29T13:21:20;100710.75;;;22.16;100.00
54172;BME280;40076;52.354;4.970;2023-07-29T13:23:45;100700.50;;;22.20;100.00
54172;BME280;40076;52.354;4.970;2023-07-29T13:26:10;100704.44;;;22.23;100.00
54172;BME280;40076;52.354;4.970;2023-07-29T13:28:36;100709.94;;;22.26;100.00
54172;BME280;40076;52.354;4.970;2023-07-29T13:31:01;100706.34;;;22.33;100.00
54172;BME280;40076;52.354;4.970;2023-07-29T13:33:28;100704.34;;;22.41;100.00
54172;BME280;40076;52.354;4.970;2023-07-29T13:35:53;100699.19;;;22.46;100.00
54172;BME280;40076;52.354;4.970;2023-07-29T13:38:18;100698.34;;;22.56;100.00
54172;BME280;40076;52.354;4.970;2023-07-29T13:40:45;100703.81;;;22.63;100.00
54172;BME280;40076;52.354;4.970;2023-07-29T13:43:13;100689.22;;;22.66;99.67
54172;BME280;40076;52.354;4.970;2023-07-29T13:45:38;100700.59;;;22.76;100.00